Grande Prairie Airport
CYQU : now visible

Airfield :











YOU CAN JOIN US ON...

 
LOGIN :

Register | Disclaimer

   EN    FR    IT 

 









Legend :    VFR   Marginal VFR   IFR   Intensive IFR   Very Intensive IFR
Visi :
Ceiling :
>= 8 km
>= 3000ft
5 to 8 km
1000 to 3000 ft
1500m to 5 km
500 to 1000 ft
800 to 1500m
200 to 500 ft
< 800m
< 200 ft
Symbols :   Thunderstorms  Fog  Heavy snow  Heavy precipitations  Wind > 20 kt






- Airport Elevation : 2195 ft
- IATA code : YQU


CYQU - Grande Prairie

CURRENT METAR :
  • 232000Z 23006KT 220V330 25SM SCT050 BKN250 19/08 A2990 RMK SC3CI3 SLP136 DENSITY ALT 3300FT

EXPIRED METARs :
  • 231900Z 34005KT 290V010 25SM SCT040 BKN220 19/08 A2990 RMK SC3CI2 SLP135 DENSITY ALT 3200FT
  • 231800Z 35011G16KT 300V010 25SM SCT040 BKN220 18/08 A2990 RMK SC3CI2 SLP136 DENSITY ALT 3100FT

TAF TAF CYQU
Valid from the 23 at 19:00 until the 24 at 07:00 UTC


231838Z 2319/2407 33012KT P6SM SCT040 BKN220
TEMPO 2319/2321 BKN040 OVC220
FM232300 33008KT P6SM SCT140 BKN240
BECMG 2405/2407 24012KT RMK NXT FCST BY 240100Z
CZEG FIR / North America



MET'MAP, your aeronautical weather chart ! - Copyright ORBIFLY December 2007 - Disclaimer

ORBIFLY MET'MAP TEAM :

Programming & Development : Alexandra Zaïnal
Concept & original design : Baudouin d'Aumeries
Assistance for programming : Marc-Olivier Méhu
Technical & hardware support : Manuel Goepfert

Contact : metmap@orbifly.com




SOURCES & CREDITS :

   NOAA       Earth
Advisory